sensor_id;sensor_type;location;lat;lon;timestamp;P1;durP1;ratioP1;P2;durP2;ratioP2
17310;SDS011;8773;43.300;0.394;2022-12-10T00:01:48;32.20;;;24.83;;
17310;SDS011;8773;43.300;0.394;2022-12-10T00:04:19;32.07;;;24.43;;
17310;SDS011;8773;43.300;0.394;2022-12-10T00:06:48;29.43;;;22.53;;
17310;SDS011;8773;43.300;0.394;2022-12-10T00:09:16;31.63;;;24.33;;
17310;SDS011;8773;43.300;0.394;2022-12-10T00:11:46;32.17;;;25.33;;
17310;SDS011;8773;43.300;0.394;2022-12-10T00:14:15;31.77;;;25.10;;
17310;SDS011;8773;43.300;0.394;2022-12-10T00:16:48;31.63;;;24.30;;
17310;SDS011;8773;43.300;0.394;2022-12-10T00:19:16;30.57;;;23.87;;
17310;SDS011;8773;43.300;0.394;2022-12-10T00:21:44;29.87;;;23.27;;
17310;SDS011;8773;43.300;0.394;2022-12-10T00:24:13;30.33;;;24.77;;
17310;SDS011;8773;43.300;0.394;2022-12-10T00:26:41;31.77;;;24.77;;
17310;SDS011;8773;43.300;0.394;2022-12-10T00:29:12;33.67;;;25.53;;
17310;SDS011;8773;43.300;0.394;2022-12-10T00:31:40;29.73;;;24.37;;
17310;SDS011;8773;43.300;0.394;2022-12-10T00:34:11;30.07;;;24.00;;
17310;SDS011;8773;43.300;0.394;2022-12-10T00:36:41;28.43;;;22.10;;
17310;SDS011;8773;43.300;0.394;2022-12-10T00:39:11;30.37;;;23.57;;
17310;SDS011;8773;43.300;0.394;2022-12-10T00:41:40;28.83;;;23.70;;
17310;SDS011;8773;43.300;0.394;2022-12-10T00:44:08;32.00;;;24.37;;
17310;SDS011;8773;43.300;0.394;2022-12-10T00:46:36;32.23;;;25.40;;
17310;SDS011;8773;43.300;0.394;2022-12-10T00:49:05;29.97;;;24.60;;
17310;SDS011;8773;43.300;0.394;2022-12-10T00:51:34;33.10;;;25.57;;
17310;SDS011;8773;43.300;0.394;2022-12-10T00:54:02;32.27;;;25.93;;
17310;SDS011;8773;43.300;0.394;2022-12-10T00:56:32;35.63;;;26.60;;
17310;SDS011;8773;43.300;0.394;2022-12-10T00:59:00;34.93;;;27.80;;
17310;SDS011;8773;43.300;0.394;2022-12-10T01:01:29;35.20;;;27.47;;
17310;SDS011;8773;43.300;0.394;2022-12-10T01:04:03;27.03;;;23.60;;
17310;SDS011;8773;43.300;0.394;2022-12-10T01:06:33;31.00;;;24.63;;
17310;SDS011;8773;43.300;0.394;2022-12-10T01:09:05;31.97;;;25.33;;
17310;SDS011;8773;43.300;0.394;2022-12-10T01:11:35;30.13;;;23.63;;
17310;SDS011;8773;43.300;0.394;2022-12-10T01:14:05;32.93;;;26.00;;
17310;SDS011;8773;43.300;0.394;2022-12-10T01:16:33;33.93;;;27.17;;
17310;SDS011;8773;43.300;0.394;2022-12-10T01:19:02;34.27;;;27.23;;
17310;SDS011;8773;43.300;0.394;2022-12-10T01:21:31;34.03;;;27.50;;
17310;SDS011;8773;43.300;0.394;2022-12-10T01:24:04;32.57;;;27.10;;
17310;SDS011;8773;43.300;0.394;2022-12-10T01:26:36;34.43;;;26.37;;
17310;SDS011;8773;43.300;0.394;2022-12-10T01:29:04;33.47;;;26.93;;
17310;SDS011;8773;43.300;0.394;2022-12-10T01:31:33;34.27;;;26.50;;
17310;SDS011;8773;43.300;0.394;2022-12-10T01:34:02;34.87;;;27.77;;
17310;SDS011;8773;43.300;0.394;2022-12-10T01:36:32;35.47;;;27.20;;
17310;SDS011;8773;43.300;0.394;2022-12-10T01:39:04;38.57;;;29.20;;
17310;SDS011;8773;43.300;0.394;2022-12-10T01:41:35;39.33;;;29.47;;
17310;SDS011;8773;43.300;0.394;2022-12-10T01:44:53;45.23;;;31.43;;
17310;SDS011;8773;43.300;0.394;2022-12-10T01:47:12;42.40;;;29.63;;
17310;SDS011;8773;43.300;0.394;2022-12-10T01:49:40;38.07;;;27.70;;
17310;SDS011;8773;43.300;0.394;2022-12-10T01:52:11;35.83;;;25.13;;
17310;SDS011;8773;43.300;0.394;2022-12-10T01:54:43;35.97;;;26.17;;
17310;SDS011;8773;43.300;0.394;2022-12-10T01:57:13;34.73;;;24.53;;
17310;SDS011;8773;43.300;0.394;2022-12-10T01:59:44;35.37;;;25.70;;
17310;SDS011;8773;43.300;0.394;2022-12-10T02:02:19;32.43;;;23.93;;
17310;SDS011;8773;43.300;0.394;2022-12-10T02:05:02;34.43;;;24.93;;
17310;SDS011;8773;43.300;0.394;2022-12-10T02:07:39;37.70;;;25.47;;
17310;SDS011;8773;43.300;0.394;2022-12-10T02:10:24;40.57;;;27.13;;
17310;SDS011;8773;43.300;0.394;2022-12-10T02:13:02;38.67;;;27.60;;
17310;SDS011;8773;43.300;0.394;2022-12-10T02:15:35;46.93;;;30.90;;
17310;SDS011;8773;43.300;0.394;2022-12-10T02:18:10;45.07;;;29.60;;
17310;SDS011;8773;43.300;0.394;2022-12-10T02:20:42;41.40;;;27.67;;
17310;SDS011;8773;43.300;0.394;2022-12-10T02:23:18;40.33;;;27.47;;
17310;SDS011;8773;43.300;0.394;2022-12-10T02:25:53;35.30;;;25.17;;
17310;SDS011;8773;43.300;0.394;2022-12-10T02:28:34;36.50;;;25.93;;
17310;SDS011;8773;43.300;0.394;2022-12-10T02:31:11;33.10;;;24.13;;
17310;SDS011;8773;43.300;0.394;2022-12-10T02:33:45;34.23;;;24.87;;
17310;SDS011;8773;43.300;0.394;2022-12-10T02:36:19;35.17;;;26.47;;
17310;SDS011;8773;43.300;0.394;2022-12-10T02:38:49;35.57;;;25.93;;
17310;SDS011;8773;43.300;0.394;2022-12-10T02:41:22;36.33;;;25.43;;
17310;SDS011;8773;43.300;0.394;2022-12-10T02:43:54;43.37;;;29.20;;
17310;SDS011;8773;43.300;0.394;2022-12-10T02:46:28;43.93;;;31.03;;
17310;SDS011;8773;43.300;0.394;2022-12-10T02:48:58;48.43;;;32.37;;
17310;SDS011;8773;43.300;0.394;2022-12-10T02:51:28;47.73;;;31.23;;
17310;SDS011;8773;43.300;0.394;2022-12-10T02:54:00;49.83;;;33.13;;
17310;SDS011;8773;43.300;0.394;2022-12-10T02:56:32;48.23;;;33.17;;
17310;SDS011;8773;43.300;0.394;2022-12-10T02:59:06;49.83;;;34.87;;
17310;SDS011;8773;43.300;0.394;2022-12-10T03:01:44;48.93;;;31.73;;
17310;SDS011;8773;43.300;0.394;2022-12-10T03:04:24;45.83;;;32.20;;
17310;SDS011;8773;43.300;0.394;2022-12-10T03:07:00;51.30;;;33.13;;
17310;SDS011;8773;43.300;0.394;2022-12-10T03:09:30;49.67;;;33.67;;
17310;SDS011;8773;43.300;0.394;2022-12-10T03:12:06;46.50;;;31.83;;
17310;SDS011;8773;43.300;0.394;2022-12-10T03:14:44;47.33;;;31.13;;
17310;SDS011;8773;43.300;0.394;2022-12-10T03:17:14;47.40;;;32.40;;
17310;SDS011;8773;43.300;0.394;2022-12-10T03:19:44;45.70;;;31.50;;
17310;SDS011;8773;43.300;0.394;2022-12-10T03:22:16;46.13;;;30.33;;
17310;SDS011;8773;43.300;0.394;2022-12-10T03:24:46;46.83;;;30.60;;
17310;SDS011;8773;43.300;0.394;2022-12-10T03:27:16;47.30;;;30.70;;
17310;SDS011;8773;43.300;0.394;2022-12-10T03:29:47;44.17;;;28.80;;
17310;SDS011;8773;43.300;0.394;2022-12-10T03:32:26;42.07;;;28.40;;
17310;SDS011;8773;43.300;0.394;2022-12-10T03:34:57;39.97;;;29.27;;
17310;SDS011;8773;43.300;0.394;2022-12-10T03:37:26;36.93;;;26.63;;
17310;SDS011;8773;43.300;0.394;2022-12-10T03:39:56;38.33;;;26.90;;
17310;SDS011;8773;43.300;0.394;2022-12-10T03:42:25;33.53;;;25.27;;
17310;SDS011;8773;43.300;0.394;2022-12-10T03:44:54;35.60;;;25.93;;
17310;SDS011;8773;43.300;0.394;2022-12-10T03:47:22;39.00;;;27.30;;
17310;SDS011;8773;43.300;0.394;2022-12-10T03:49:52;33.47;;;24.60;;
17310;SDS011;8773;43.300;0.394;2022-12-10T03:52:21;31.53;;;24.40;;
17310;SDS011;8773;43.300;0.394;2022-12-10T03:54:49;33.07;;;25.00;;
17310;SDS011;8773;43.300;0.394;2022-12-10T03:57:17;30.40;;;23.77;;
17310;SDS011;8773;43.300;0.394;2022-12-10T03:59:46;33.37;;;24.10;;
17310;SDS011;8773;43.300;0.394;2022-12-10T04:02:14;33.00;;;24.10;;
17310;SDS011;8773;43.300;0.394;2022-12-10T04:04:42;31.80;;;24.70;;
17310;SDS011;8773;43.300;0.394;2022-12-10T04:07:11;29.23;;;23.37;;
17310;SDS011;8773;43.300;0.394;2022-12-10T04:09:40;29.90;;;23.63;;
17310;SDS011;8773;43.300;0.394;2022-12-10T04:12:08;29.63;;;23.73;;
17310;SDS011;8773;43.300;0.394;2022-12-10T04:14:36;30.93;;;23.67;;
17310;SDS011;8773;43.300;0.394;2022-12-10T04:17:22;34.13;;;24.23;;
17310;SDS011;8773;43.300;0.394;2022-12-10T04:19:50;29.00;;;24.30;;
17310;SDS011;8773;43.300;0.394;2022-12-10T04:22:19;33.10;;;23.33;;
17310;SDS011;8773;43.300;0.394;2022-12-10T04:25:05;27.23;;;21.63;;
17310;SDS011;8773;43.300;0.394;2022-12-10T04:28:05;29.30;;;22.33;;
17310;SDS011;8773;43.300;0.394;2022-12-10T04:30:34;27.97;;;21.37;;
17310;SDS011;8773;43.300;0.394;2022-12-10T04:33:02;24.63;;;20.37;;
17310;SDS011;8773;43.300;0.394;2022-12-10T04:35:30;25.27;;;21.50;;
17310;SDS011;8773;43.300;0.394;2022-12-10T04:38:00;25.70;;;21.00;;
17310;SDS011;8773;43.300;0.394;2022-12-10T04:40:28;25.53;;;20.43;;
17310;SDS011;8773;43.300;0.394;2022-12-10T04:42:56;23.17;;;20.20;;
17310;SDS011;8773;43.300;0.394;2022-12-10T04:45:24;25.93;;;20.03;;
17310;SDS011;8773;43.300;0.394;2022-12-10T04:47:52;23.23;;;19.77;;
17310;SDS011;8773;43.300;0.394;2022-12-10T04:50:21;22.10;;;18.63;;
17310;SDS011;8773;43.300;0.394;2022-12-10T04:52:51;22.87;;;19.30;;
17310;SDS011;8773;43.300;0.394;2022-12-10T04:55:23;22.47;;;17.93;;
17310;SDS011;8773;43.300;0.394;2022-12-10T04:57:55;26.30;;;19.57;;
17310;SDS011;8773;43.300;0.394;2022-12-10T05:00:23;23.13;;;18.37;;
17310;SDS011;8773;43.300;0.394;2022-12-10T05:02:52;27.73;;;19.87;;
17310;SDS011;8773;43.300;0.394;2022-12-10T05:05:20;22.00;;;19.20;;
17310;SDS011;8773;43.300;0.394;2022-12-10T05:07:48;24.73;;;18.93;;
17310;SDS011;8773;43.300;0.394;2022-12-10T05:10:19;22.47;;;19.47;;
17310;SDS011;8773;43.300;0.394;2022-12-10T05:12:48;22.23;;;18.80;;
17310;SDS011;8773;43.300;0.394;2022-12-10T05:15:17;21.50;;;17.80;;
17310;SDS011;8773;43.300;0.394;2022-12-10T05:17:45;21.90;;;18.77;;
17310;SDS011;8773;43.300;0.394;2022-12-10T05:20:16;20.37;;;18.10;;
17310;SDS011;8773;43.300;0.394;2022-12-10T05:22:44;21.73;;;18.40;;
17310;SDS011;8773;43.300;0.394;2022-12-10T05:25:29;21.00;;;17.93;;
17310;SDS011;8773;43.300;0.394;2022-12-10T05:27:59;19.97;;;17.40;;
17310;SDS011;8773;43.300;0.394;2022-12-10T05:30:27;19.47;;;17.17;;
17310;SDS011;8773;43.300;0.394;2022-12-10T05:32:55;21.47;;;17.87;;
17310;SDS011;8773;43.300;0.394;2022-12-10T05:35:23;21.13;;;16.67;;
17310;SDS011;8773;43.300;0.394;2022-12-10T05:37:51;19.00;;;16.73;;
17310;SDS011;8773;43.300;0.394;2022-12-10T05:40:20;18.23;;;16.33;;
17310;SDS011;8773;43.300;0.394;2022-12-10T05:42:48;17.37;;;15.60;;
17310;SDS011;8773;43.300;0.394;2022-12-10T05:45:17;18.00;;;15.20;;
17310;SDS011;8773;43.300;0.394;2022-12-10T05:47:45;16.47;;;14.83;;
17310;SDS011;8773;43.300;0.394;2022-12-10T05:50:14;17.37;;;15.10;;
17310;SDS011;8773;43.300;0.394;2022-12-10T05:52:42;15.47;;;13.83;;
17310;SDS011;8773;43.300;0.394;2022-12-10T05:55:12;15.90;;;14.30;;
17310;SDS011;8773;43.300;0.394;2022-12-10T05:57:40;16.50;;;14.30;;
17310;SDS011;8773;43.300;0.394;2022-12-10T06:00:09;17.47;;;14.90;;
17310;SDS011;8773;43.300;0.394;2022-12-10T06:02:39;15.87;;;14.17;;
17310;SDS011;8773;43.300;0.394;2022-12-10T06:05:07;16.83;;;15.03;;
17310;SDS011;8773;43.300;0.394;2022-12-10T06:07:36;18.50;;;14.97;;
17310;SDS011;8773;43.300;0.394;2022-12-10T06:10:04;18.27;;;15.73;;
17310;SDS011;8773;43.300;0.394;2022-12-10T06:12:32;16.77;;;14.93;;
17310;SDS011;8773;43.300;0.394;2022-12-10T06:15:01;16.90;;;15.10;;
17310;SDS011;8773;43.300;0.394;2022-12-10T06:17:29;17.07;;;15.13;;
17310;SDS011;8773;43.300;0.394;2022-12-10T06:19:58;17.20;;;14.77;;
17310;SDS011;8773;43.300;0.394;2022-12-10T06:22:26;18.00;;;15.03;;
17310;SDS011;8773;43.300;0.394;2022-12-10T06:24:55;20.00;;;15.80;;
17310;SDS011;8773;43.300;0.394;2022-12-10T06:27:25;16.30;;;14.20;;
17310;SDS011;8773;43.300;0.394;2022-12-10T06:29:53;20.57;;;16.57;;
17310;SDS011;8773;43.300;0.394;2022-12-10T06:32:21;16.83;;;14.77;;
17310;SDS011;8773;43.300;0.394;2022-12-10T06:34:49;18.07;;;15.57;;
17310;SDS011;8773;43.300;0.394;2022-12-10T06:37:19;18.73;;;15.80;;
17310;SDS011;8773;43.300;0.394;2022-12-10T06:39:49;16.00;;;14.30;;
17310;SDS011;8773;43.300;0.394;2022-12-10T06:42:18;16.70;;;15.00;;
17310;SDS011;8773;43.300;0.394;2022-12-10T06:44:46;18.43;;;16.53;;
17310;SDS011;8773;43.300;0.394;2022-12-10T06:47:18;19.80;;;15.13;;
17310;SDS011;8773;43.300;0.394;2022-12-10T06:49:47;18.37;;;16.23;;
17310;SDS011;8773;43.300;0.394;2022-12-10T06:52:15;20.37;;;16.20;;
17310;SDS011;8773;43.300;0.394;2022-12-10T06:54:45;18.00;;;14.07;;
17310;SDS011;8773;43.300;0.394;2022-12-10T06:57:13;16.57;;;14.37;;
17310;SDS011;8773;43.300;0.394;2022-12-10T06:59:41;18.43;;;14.80;;
17310;SDS011;8773;43.300;0.394;2022-12-10T07:02:09;18.53;;;15.30;;
17310;SDS011;8773;43.300;0.394;2022-12-10T07:04:38;17.77;;;14.87;;
17310;SDS011;8773;43.300;0.394;2022-12-10T07:07:06;17.20;;;15.40;;
17310;SDS011;8773;43.300;0.394;2022-12-10T07:09:35;18.13;;;15.40;;
17310;SDS011;8773;43.300;0.394;2022-12-10T07:12:06;18.07;;;15.60;;
17310;SDS011;8773;43.300;0.394;2022-12-10T07:14:34;21.87;;;16.97;;
17310;SDS011;8773;43.300;0.394;2022-12-10T07:17:02;18.87;;;16.10;;
17310;SDS011;8773;43.300;0.394;2022-12-10T07:19:31;17.90;;;15.60;;
17310;SDS011;8773;43.300;0.394;2022-12-10T07:21:59;18.37;;;15.40;;
17310;SDS011;8773;43.300;0.394;2022-12-10T07:24:28;19.43;;;15.27;;
17310;SDS011;8773;43.300;0.394;2022-12-10T07:26:56;17.97;;;14.87;;
17310;SDS011;8773;43.300;0.394;2022-12-10T07:29:26;16.27;;;14.07;;
17310;SDS011;8773;43.300;0.394;2022-12-10T07:31:54;17.20;;;15.27;;
17310;SDS011;8773;43.300;0.394;2022-12-10T07:34:22;19.00;;;15.27;;
17310;SDS011;8773;43.300;0.394;2022-12-10T07:36:50;17.20;;;15.33;;
17310;SDS011;8773;43.300;0.394;2022-12-10T07:39:18;17.87;;;15.97;;
17310;SDS011;8773;43.300;0.394;2022-12-10T07:41:47;16.80;;;15.00;;
17310;SDS011;8773;43.300;0.394;2022-12-10T07:44:17;18.20;;;15.57;;
17310;SDS011;8773;43.300;0.394;2022-12-10T07:46:49;16.27;;;14.57;;
17310;SDS011;8773;43.300;0.394;2022-12-10T07:49:18;17.00;;;14.77;;
17310;SDS011;8773;43.300;0.394;2022-12-10T07:51:47;16.37;;;14.70;;
17310;SDS011;8773;43.300;0.394;2022-12-10T07:54:16;19.57;;;16.47;;
17310;SDS011;8773;43.300;0.394;2022-12-10T07:56:46;17.37;;;15.47;;
17310;SDS011;8773;43.300;0.394;2022-12-10T07:59:14;17.43;;;15.57;;
17310;SDS011;8773;43.300;0.394;2022-12-10T08:01:42;17.53;;;15.63;;
17310;SDS011;8773;43.300;0.394;2022-12-10T08:04:12;19.63;;;16.60;;
17310;SDS011;8773;43.300;0.394;2022-12-10T08:06:40;19.63;;;16.30;;
17310;SDS011;8773;43.300;0.394;2022-12-10T08:09:09;18.27;;;16.30;;
17310;SDS011;8773;43.300;0.394;2022-12-10T08:11:38;20.27;;;15.70;;
17310;SDS011;8773;43.300;0.394;2022-12-10T08:14:06;18.50;;;15.73;;
17310;SDS011;8773;43.300;0.394;2022-12-10T08:16:34;22.93;;;20.40;;
17310;SDS011;8773;43.300;0.394;2022-12-10T08:19:03;18.77;;;16.77;;
17310;SDS011;8773;43.300;0.394;2022-12-10T08:21:32;21.57;;;16.50;;
17310;SDS011;8773;43.300;0.394;2022-12-10T08:24:01;20.17;;;16.17;;
17310;SDS011;8773;43.300;0.394;2022-12-10T08:26:29;17.80;;;15.70;;
17310;SDS011;8773;43.300;0.394;2022-12-10T08:28:59;20.33;;;16.90;;
17310;SDS011;8773;43.300;0.394;2022-12-10T08:31:28;20.70;;;17.37;;
17310;SDS011;8773;43.300;0.394;2022-12-10T08:34:03;19.90;;;16.10;;
17310;SDS011;8773;43.300;0.394;2022-12-10T08:36:34;19.10;;;16.73;;
17310;SDS011;8773;43.300;0.394;2022-12-10T08:39:02;20.30;;;16.67;;
17310;SDS011;8773;43.300;0.394;2022-12-10T08:41:30;20.23;;;16.83;;
17310;SDS011;8773;43.300;0.394;2022-12-10T08:43:58;19.17;;;16.33;;
17310;SDS011;8773;43.300;0.394;2022-12-10T08:46:27;19.43;;;16.80;;
17310;SDS011;8773;43.300;0.394;2022-12-10T08:48:58;19.50;;;15.73;;
17310;SDS011;8773;43.300;0.394;2022-12-10T08:51:26;20.17;;;15.63;;
17310;SDS011;8773;43.300;0.394;2022-12-10T08:53:59;18.40;;;15.83;;
17310;SDS011;8773;43.300;0.394;2022-12-10T08:56:27;17.37;;;15.47;;
17310;SDS011;8773;43.300;0.394;2022-12-10T08:59:03;18.30;;;15.27;;
17310;SDS011;8773;43.300;0.394;2022-12-10T09:01:31;18.60;;;15.70;;
17310;SDS011;8773;43.300;0.394;2022-12-10T09:03:59;18.80;;;16.47;;
17310;SDS011;8773;43.300;0.394;2022-12-10T09:06:28;19.57;;;16.73;;
17310;SDS011;8773;43.300;0.394;2022-12-10T09:08:56;17.67;;;15.33;;
17310;SDS011;8773;43.300;0.394;2022-12-10T09:11:26;18.10;;;15.90;;
17310;SDS011;8773;43.300;0.394;2022-12-10T09:13:57;17.00;;;15.20;;
17310;SDS011;8773;43.300;0.394;2022-12-10T09:16:27;17.60;;;15.17;;
17310;SDS011;8773;43.300;0.394;2022-12-10T09:18:56;17.80;;;16.00;;
17310;SDS011;8773;43.300;0.394;2022-12-10T09:21:26;20.30;;;16.67;;
17310;SDS011;8773;43.300;0.394;2022-12-10T09:23:56;17.33;;;15.03;;
17310;SDS011;8773;43.300;0.394;2022-12-10T09:26:26;19.40;;;15.97;;
17310;SDS011;8773;43.300;0.394;2022-12-10T09:28:55;18.00;;;15.23;;
17310;SDS011;8773;43.300;0.394;2022-12-10T09:31:24;16.47;;;14.77;;
17310;SDS011;8773;43.300;0.394;2022-12-10T09:33:53;18.80;;;16.70;;
17310;SDS011;8773;43.300;0.394;2022-12-10T09:36:21;17.20;;;15.27;;
17310;SDS011;8773;43.300;0.394;2022-12-10T09:38:59;17.47;;;15.77;;
17310;SDS011;8773;43.300;0.394;2022-12-10T09:41:36;18.77;;;15.67;;
17310;SDS011;8773;43.300;0.394;2022-12-10T09:44:11;17.93;;;16.03;;
17310;SDS011;8773;43.300;0.394;2022-12-10T09:46:48;17.23;;;15.63;;
17310;SDS011;8773;43.300;0.394;2022-12-10T09:49:22;20.13;;;18.03;;
17310;SDS011;8773;43.300;0.394;2022-12-10T09:52:10;19.83;;;17.73;;
17310;SDS011;8773;43.300;0.394;2022-12-10T09:54:41;20.03;;;17.87;;
17310;SDS011;8773;43.300;0.394;2022-12-10T09:57:18;18.03;;;16.13;;
17310;SDS011;8773;43.300;0.394;2022-12-10T09:59:49;20.30;;;18.10;;
17310;SDS011;8773;43.300;0.394;2022-12-10T10:02:19;21.73;;;16.67;;
17310;SDS011;8773;43.300;0.394;2022-12-10T10:04:50;17.80;;;15.90;;
17310;SDS011;8773;43.300;0.394;2022-12-10T10:07:20;19.47;;;17.40;;
17310;SDS011;8773;43.300;0.394;2022-12-10T10:09:51;19.87;;;17.23;;
17310;SDS011;8773;43.300;0.394;2022-12-10T10:12:26;17.60;;;15.90;;
17310;SDS011;8773;43.300;0.394;2022-12-10T10:14:55;17.43;;;15.60;;
17310;SDS011;8773;43.300;0.394;2022-12-10T10:17:26;16.07;;;14.47;;
17310;SDS011;8773;43.300;0.394;2022-12-10T10:19:59;16.83;;;15.03;;
17310;SDS011;8773;43.300;0.394;2022-12-10T10:22:30;15.63;;;13.67;;
17310;SDS011;8773;43.300;0.394;2022-12-10T10:24:59;15.80;;;14.20;;
17310;SDS011;8773;43.300;0.394;2022-12-10T10:27:30;11.87;;;10.67;;
17310;SDS011;8773;43.300;0.394;2022-12-10T10:30:00;12.27;;;11.10;;
17310;SDS011;8773;43.300;0.394;2022-12-10T10:32:44;12.20;;;10.90;;
17310;SDS011;8773;43.300;0.394;2022-12-10T10:38:13;11.77;;;10.67;;
17310;SDS011;8773;43.300;0.394;2022-12-10T10:40:45;12.67;;;11.47;;
17310;SDS011;8773;43.300;0.394;2022-12-10T10:43:19;13.57;;;12.13;;
17310;SDS011;8773;43.300;0.394;2022-12-10T10:45:54;12.40;;;11.10;;
17310;SDS011;8773;43.300;0.394;2022-12-10T10:48:25;12.47;;;11.23;;
17310;SDS011;8773;43.300;0.394;2022-12-10T10:50:55;13.40;;;12.10;;
17310;SDS011;8773;43.300;0.394;2022-12-10T10:53:40;11.80;;;10.60;;
17310;SDS011;8773;43.300;0.394;2022-12-10T10:56:10;11.33;;;10.23;;
17310;SDS011;8773;43.300;0.394;2022-12-10T10:58:49;11.07;;;10.00;;
17310;SDS011;8773;43.300;0.394;2022-12-10T11:01:24;10.80;;;9.63;;
17310;SDS011;8773;43.300;0.394;2022-12-10T11:03:54;11.47;;;9.80;;
17310;SDS011;8773;43.300;0.394;2022-12-10T11:06:25;9.47;;;8.67;;
17310;SDS011;8773;43.300;0.394;2022-12-10T11:08:54;10.07;;;9.00;;
17310;SDS011;8773;43.300;0.394;2022-12-10T11:11:30;9.03;;;8.27;;
17310;SDS011;8773;43.300;0.394;2022-12-10T11:14:15;10.93;;;9.93;;
17310;SDS011;8773;43.300;0.394;2022-12-10T11:16:50;9.13;;;8.33;;
17310;SDS011;8773;43.300;0.394;2022-12-10T11:19:27;7.80;;;7.10;;
17310;SDS011;8773;43.300;0.394;2022-12-10T11:21:55;7.03;;;6.40;;
17310;SDS011;8773;43.300;0.394;2022-12-10T11:24:43;6.77;;;6.20;;
17310;SDS011;8773;43.300;0.394;2022-12-10T11:27:14;5.90;;;5.40;;
17310;SDS011;8773;43.300;0.394;2022-12-10T11:29:57;7.20;;;6.50;;
17310;SDS011;8773;43.300;0.394;2022-12-10T11:32:36;7.37;;;6.73;;
17310;SDS011;8773;43.300;0.394;2022-12-10T11:35:14;8.00;;;7.20;;
17310;SDS011;8773;43.300;0.394;2022-12-10T11:37:48;7.33;;;6.60;;
17310;SDS011;8773;43.300;0.394;2022-12-10T11:40:38;8.33;;;7.53;;
17310;SDS011;8773;43.300;0.394;2022-12-10T11:46:10;6.83;;;6.23;;
17310;SDS011;8773;43.300;0.394;2022-12-10T11:48:54;4.60;;;4.20;;
17310;SDS011;8773;43.300;0.394;2022-12-10T11:51:32;5.27;;;4.83;;
17310;SDS011;8773;43.300;0.394;2022-12-10T11:54:06;8.37;;;5.30;;
17310;SDS011;8773;43.300;0.394;2022-12-10T11:56:48;11.17;;;10.00;;
17310;SDS011;8773;43.300;0.394;2022-12-10T11:59:21;4.83;;;4.43;;
17310;SDS011;8773;43.300;0.394;2022-12-10T12:02:19;4.83;;;4.53;;
17310;SDS011;8773;43.300;0.394;2022-12-10T12:05:07;5.43;;;5.03;;
17310;SDS011;8773;43.300;0.394;2022-12-10T12:07:48;5.13;;;4.73;;
17310;SDS011;8773;43.300;0.394;2022-12-10T12:10:35;5.73;;;4.67;;
17310;SDS011;8773;43.300;0.394;2022-12-10T12:13:25;5.60;;;5.10;;
17310;SDS011;8773;43.300;0.394;2022-12-10T12:15:56;5.13;;;4.73;;
17310;SDS011;8773;43.300;0.394;2022-12-10T12:18:36;4.77;;;4.37;;
17310;SDS011;8773;43.300;0.394;2022-12-10T12:21:11;4.70;;;4.27;;
17310;SDS011;8773;43.300;0.394;2022-12-10T12:23:43;4.43;;;4.13;;
17310;SDS011;8773;43.300;0.394;2022-12-10T12:26:23;4.70;;;4.30;;
17310;SDS011;8773;43.300;0.394;2022-12-10T12:28:58;4.37;;;3.97;;
17310;SDS011;8773;43.300;0.394;2022-12-10T12:31:34;4.50;;;4.10;;
17310;SDS011;8773;43.300;0.394;2022-12-10T12:34:10;4.50;;;4.20;;
17310;SDS011;8773;43.300;0.394;2022-12-10T12:36:45;4.90;;;4.50;;
17310;SDS011;8773;43.300;0.394;2022-12-10T12:39:16;5.67;;;5.27;;
17310;SDS011;8773;43.300;0.394;2022-12-10T12:41:54;4.97;;;4.57;;
17310;SDS011;8773;43.300;0.394;2022-12-10T12:44:29;4.80;;;4.40;;
17310;SDS011;8773;43.300;0.394;2022-12-10T12:47:05;4.07;;;3.77;;
17310;SDS011;8773;43.300;0.394;2022-12-10T12:49:49;3.10;;;2.90;;
17310;SDS011;8773;43.300;0.394;2022-12-10T12:52:25;2.70;;;2.53;;
17310;SDS011;8773;43.300;0.394;2022-12-10T12:55:01;3.40;;;3.20;;
17310;SDS011;8773;43.300;0.394;2022-12-10T12:57:35;3.60;;;3.40;;
17310;SDS011;8773;43.300;0.394;2022-12-10T13:00:10;3.10;;;2.90;;
17310;SDS011;8773;43.300;0.394;2022-12-10T13:02:47;3.80;;;3.30;;
17310;SDS011;8773;43.300;0.394;2022-12-10T13:05:28;4.23;;;3.60;;
17310;SDS011;8773;43.300;0.394;2022-12-10T13:10:57;4.90;;;4.20;;
17310;SDS011;8773;43.300;0.394;2022-12-10T13:13:31;4.47;;;4.17;;
17310;SDS011;8773;43.300;0.394;2022-12-10T13:21:57;3.77;;;3.43;;
17310;SDS011;8773;43.300;0.394;2022-12-10T13:24:43;3.80;;;3.50;;
17310;SDS011;8773;43.300;0.394;2022-12-10T13:27:15;3.50;;;3.30;;
17310;SDS011;8773;43.300;0.394;2022-12-10T13:29:45;3.27;;;2.93;;
17310;SDS011;8773;43.300;0.394;2022-12-10T13:32:41;3.40;;;3.20;;
17310;SDS011;8773;43.300;0.394;2022-12-10T13:35:16;3.37;;;3.17;;
17310;SDS011;8773;43.300;0.394;2022-12-10T13:38:02;2.80;;;2.60;;
17310;SDS011;8773;43.300;0.394;2022-12-10T13:40:39;2.73;;;2.63;;
17310;SDS011;8773;43.300;0.394;2022-12-10T13:43:35;3.17;;;2.97;;
17310;SDS011;8773;43.300;0.394;2022-12-10T13:46:26;4.03;;;3.37;;
17310;SDS011;8773;43.300;0.394;2022-12-10T13:49:02;4.00;;;3.80;;
17310;SDS011;8773;43.300;0.394;2022-12-10T13:51:38;3.87;;;3.67;;
17310;SDS011;8773;43.300;0.394;2022-12-10T13:54:26;3.83;;;3.60;;
17310;SDS011;8773;43.300;0.394;2022-12-10T13:57:24;3.77;;;3.47;;
17310;SDS011;8773;43.300;0.394;2022-12-10T14:00:07;3.83;;;3.37;;
17310;SDS011;8773;43.300;0.394;2022-12-10T14:02:48;3.20;;;2.90;;
17310;SDS011;8773;43.300;0.394;2022-12-10T14:05:33;3.60;;;3.30;;
17310;SDS011;8773;43.300;0.394;2022-12-10T14:08:23;3.00;;;2.90;;
17310;SDS011;8773;43.300;0.394;2022-12-10T14:10:58;2.80;;;2.70;;
17310;SDS011;8773;43.300;0.394;2022-12-10T14:13:30;3.30;;;3.10;;
17310;SDS011;8773;43.300;0.394;2022-12-10T14:16:01;3.37;;;3.10;;
17310;SDS011;8773;43.300;0.394;2022-12-10T14:18:32;3.77;;;3.47;;
17310;SDS011;8773;43.300;0.394;2022-12-10T14:21:02;3.10;;;2.90;;
17310;SDS011;8773;43.300;0.394;2022-12-10T14:23:34;4.03;;;3.00;;
17310;SDS011;8773;43.300;0.394;2022-12-10T14:26:14;3.23;;;2.93;;
17310;SDS011;8773;43.300;0.394;2022-12-10T14:28:47;3.07;;;2.87;;
17310;SDS011;8773;43.300;0.394;2022-12-10T14:31:18;3.43;;;3.13;;
17310;SDS011;8773;43.300;0.394;2022-12-10T14:33:51;3.50;;;3.30;;
17310;SDS011;8773;43.300;0.394;2022-12-10T14:36:27;3.07;;;2.87;;
17310;SDS011;8773;43.300;0.394;2022-12-10T14:39:01;3.10;;;2.90;;
17310;SDS011;8773;43.300;0.394;2022-12-10T14:41:31;2.47;;;2.37;;
17310;SDS011;8773;43.300;0.394;2022-12-10T14:44:06;3.03;;;2.80;;
17310;SDS011;8773;43.300;0.394;2022-12-10T14:46:40;2.90;;;2.80;;
17310;SDS011;8773;43.300;0.394;2022-12-10T14:49:08;2.47;;;2.37;;
17310;SDS011;8773;43.300;0.394;2022-12-10T14:51:45;2.90;;;2.50;;
17310;SDS011;8773;43.300;0.394;2022-12-10T14:54:26;2.80;;;2.60;;
17310;SDS011;8773;43.300;0.394;2022-12-10T14:57:00;3.33;;;2.67;;
17310;SDS011;8773;43.300;0.394;2022-12-10T14:59:32;2.80;;;2.60;;
17310;SDS011;8773;43.300;0.394;2022-12-10T15:02:10;3.03;;;2.63;;
17310;SDS011;8773;43.300;0.394;2022-12-10T15:04:45;2.33;;;2.23;;
17310;SDS011;8773;43.300;0.394;2022-12-10T15:07:17;2.70;;;2.50;;
17310;SDS011;8773;43.300;0.394;2022-12-10T15:09:48;2.47;;;2.37;;
17310;SDS011;8773;43.300;0.394;2022-12-10T15:12:21;2.40;;;2.23;;
17310;SDS011;8773;43.300;0.394;2022-12-10T15:14:59;2.60;;;2.40;;
17310;SDS011;8773;43.300;0.394;2022-12-10T15:17:37;2.83;;;2.63;;
17310;SDS011;8773;43.300;0.394;2022-12-10T15:20:18;2.60;;;2.40;;
17310;SDS011;8773;43.300;0.394;2022-12-10T15:22:47;2.43;;;2.23;;
17310;SDS011;8773;43.300;0.394;2022-12-10T15:25:23;2.57;;;2.43;;
17310;SDS011;8773;43.300;0.394;2022-12-10T15:27:59;3.20;;;2.60;;